Time;durP1;ratioP1;P1;durP2;ratioP2;P2;SDS_P1;SDS_P2;PMS_P1;PMS_P2;Temp;Humidity;BMP_temperature;BMP_pressure;BME280_temperature;BME280_humidity;BME280_pressure;Samples;Min_cycle;Max_cycle;Signal;HPM_P1;HPM_P2
2022/04/26 03:37:19;;;;;;;17.52;7.78;;;;;;;;;;5025414;28;20045;-57
2022/04/26 03:39:45;;;;;;;17.63;7.47;;;;;;;;;;5007115;28;20053;-57
2022/04/26 03:42:11;;;;;;;15.50;7.50;;;;;;;;;;5025360;28;20303;-58
2022/04/26 03:44:38;;;;;;;24.33;8.88;;;;;;;;;;5024702;28;20080;-57
2022/04/26 03:47:04;;;;;;;17.55;8.13;;;;;;;;;;5025411;28;20513;-57
2022/04/26 03:49:30;;;;;;;20.73;8.40;;;;;;;;;;5025296;28;20523;-58
2022/04/26 03:51:57;;;;;;;19.45;7.93;;;;;;;;;;5025638;28;20069;-57
2022/04/26 03:54:23;;;;;;;22.05;7.97;;;;;;;;;;5024831;28;20056;-57
2022/04/26 03:56:50;;;;;;;17.92;8.43;;;;;;;;;;5024757;28;20049;-57
2022/04/26 03:59:16;;;;;;;19.25;8.27;;;;;;;;;;5024449;28;20060;-57
2022/04/26 04:01:43;;;;;;;21.45;8.05;;;;;;;;;;5025190;28;20045;-56
2022/04/26 04:04:09;;;;;;;17.70;8.35;;;;;;;;;;5025069;28;20537;-57
2022/04/26 04:06:35;;;;;;;19.85;8.40;;;;;;;;;;5024792;28;20076;-58
2022/04/26 04:09:01;;;;;;;21.25;7.80;;;;;;;;;;5024754;28;20052;-57
2022/04/26 04:11:27;;;;;;;19.20;8.10;;;;;;;;;;5025130;28;20461;-57
2022/04/26 04:13:53;;;;;;;16.33;8.07;;;;;;;;;;5022833;28;20099;-57
2022/04/26 04:16:19;;;;;;;17.10;7.65;;;;;;;;;;5025004;28;20050;-57
2022/04/26 04:21:31;;;;;;;11.93;7.45;;;;;;;;;;5023417;28;20045;-57
2022/04/26 04:23:58;;;;;;;21.75;8.15;;;;;;;;;;5025101;28;20053;-57
2022/04/26 04:26:24;;;;;;;16.35;7.80;;;;;;;;;;5024960;28;20044;-57
2022/04/26 04:28:50;;;;;;;19.67;7.30;;;;;;;;;;5023801;28;20289;-56
2022/04/26 04:31:16;;;;;;;23.52;8.63;;;;;;;;;;5024742;28;20041;-57
2022/04/26 04:33:43;;;;;;;25.58;9.00;;;;;;;;;;5023934;28;20095;-57
2022/04/26 04:36:10;;;;;;;28.92;8.35;;;;;;;;;;5024728;28;20132;-57
2022/04/26 04:38:36;;;;;;;19.23;7.95;;;;;;;;;;5023795;28;20049;-56
2022/04/26 04:41:02;;;;;;;14.52;6.95;;;;;;;;;;5023981;28;20487;-57
2022/04/26 04:43:28;;;;;;;16.98;7.43;;;;;;;;;;5023257;28;20045;-57
2022/04/26 04:45:54;;;;;;;21.02;7.50;;;;;;;;;;5023182;28;20046;-57
2022/04/26 04:48:20;;;;;;;16.85;7.75;;;;;;;;;;5023673;28;20059;-57
2022/04/26 04:50:47;;;;;;;19.58;8.10;;;;;;;;;;5023600;28;20486;-57
2022/04/26 04:53:13;;;;;;;19.52;7.40;;;;;;;;;;5024119;28;20037;-57
2022/04/26 04:55:40;;;;;;;23.27;7.38;;;;;;;;;;5023480;28;20057;-57
2022/04/26 04:58:07;;;;;;;19.38;7.13;;;;;;;;;;5023881;28;20461;-56
2022/04/26 05:00:33;;;;;;;16.38;6.60;;;;;;;;;;5022937;28;20402;-57
2022/04/26 05:02:59;;;;;;;17.17;7.45;;;;;;;;;;5024265;28;20045;-57
2022/04/26 05:05:25;;;;;;;13.25;5.97;;;;;;;;;;5024938;28;20072;-57
2022/04/26 05:07:52;;;;;;;15.68;6.60;;;;;;;;;;5024177;28;20049;-57
2022/04/26 05:10:19;;;;;;;14.43;5.53;;;;;;;;;;5006746;28;20057;-57
2022/04/26 05:12:45;;;;;;;17.27;6.40;;;;;;;;;;5024016;28;20056;-57
2022/04/26 05:15:11;;;;;;;16.13;6.05;;;;;;;;;;5021726;28;20172;-57
2022/04/26 05:17:37;;;;;;;13.98;6.05;;;;;;;;;;5023967;28;20045;-57
2022/04/26 05:20:05;;;;;;;14.00;5.40;;;;;;;;;;5024910;28;20121;-57
2022/04/26 05:22:31;;;;;;;16.05;5.55;;;;;;;;;;5024387;28;20081;-57
2022/04/26 05:24:57;;;;;;;15.45;5.22;;;;;;;;;;5023325;28;20124;-56
2022/04/26 05:27:26;;;;;;;19.52;6.63;;;;;;;;;;5024537;28;20049;-56
2022/04/26 05:29:52;;;;;;;14.52;5.32;;;;;;;;;;5005593;28;20046;-56
2022/04/26 05:32:19;;;;;;;18.25;5.07;;;;;;;;;;5017017;28;20045;-57
2022/04/26 05:34:46;;;;;;;11.02;4.32;;;;;;;;;;5016194;28;20053;-57
2022/04/26 05:37:12;;;;;;;15.55;4.97;;;;;;;;;;5018625;28;20113;-57
2022/04/26 05:39:38;;;;;;;14.27;4.45;;;;;;;;;;5018085;28;20033;-58
2022/04/26 05:42:04;;;;;;;19.60;5.53;;;;;;;;;;5018667;28;20082;-57
2022/04/26 05:44:31;;;;;;;12.25;5.10;;;;;;;;;;5016927;28;21081;-57
2022/04/26 05:46:57;;;;;;;16.48;4.97;;;;;;;;;;5022222;28;20037;-57
2022/04/26 05:49:23;;;;;;;14.88;4.32;;;;;;;;;;5022735;28;20598;-57
2022/04/26 05:51:50;;;;;;;11.98;4.35;;;;;;;;;;5005424;28;20045;-57
2022/04/26 05:54:16;;;;;;;13.10;4.57;;;;;;;;;;5006565;28;20053;-57
2022/04/26 05:56:42;;;;;;;12.38;4.78;;;;;;;;;;5026409;28;20445;-58
2022/04/26 05:59:09;;;;;;;14.98;4.63;;;;;;;;;;5026643;28;20475;-58
2022/04/26 06:01:35;;;;;;;9.75;3.88;;;;;;;;;;5026740;28;20041;-58
2022/04/26 06:04:01;;;;;;;12.93;4.50;;;;;;;;;;5026927;28;20049;-58
2022/04/26 06:06:27;;;;;;;10.88;4.13;;;;;;;;;;5027958;28;20050;-58
2022/04/26 06:08:53;;;;;;;15.30;4.50;;;;;;;;;;5027049;28;20052;-58
2022/04/26 06:11:19;;;;;;;12.93;4.03;;;;;;;;;;5026688;28;20049;-58
2022/04/26 06:13:46;;;;;;;17.25;4.80;;;;;;;;;;5026159;28;20415;-58
2022/04/26 06:16:12;;;;;;;14.10;4.85;;;;;;;;;;5027095;28;20053;-58
2022/04/26 06:18:38;;;;;;;16.05;4.70;;;;;;;;;;5026617;28;20398;-58
2022/04/26 06:21:04;;;;;;;12.38;5.05;;;;;;;;;;5026386;28;20045;-59
2022/04/26 06:23:30;;;;;;;7.05;3.63;;;;;;;;;;5026703;28;20049;-58
2022/04/26 06:25:57;;;;;;;10.68;4.25;;;;;;;;;;5026627;28;20120;-58
2022/04/26 06:28:23;;;;;;;14.82;4.18;;;;;;;;;;5026266;28;20045;-58
2022/04/26 06:30:50;;;;;;;13.05;4.50;;;;;;;;;;5026806;28;20660;-58
2022/04/26 06:33:17;;;;;;;14.82;4.10;;;;;;;;;;5026724;28;20049;-58
2022/04/26 06:35:43;;;;;;;13.15;3.95;;;;;;;;;;5026543;28;20668;-58
2022/04/26 06:38:09;;;;;;;13.27;3.92;;;;;;;;;;5026722;28;20037;-58
2022/04/26 06:40:36;;;;;;;17.42;5.18;;;;;;;;;;5025692;28;20107;-59
2022/04/26 06:43:02;;;;;;;12.68;4.38;;;;;;;;;;5026730;28;20038;-59
2022/04/26 06:45:28;;;;;;;11.75;3.97;;;;;;;;;;5026356;28;20176;-59
2022/04/26 06:47:54;;;;;;;11.55;5.03;;;;;;;;;;5026304;28;20038;-58
2022/04/26 06:50:21;;;;;;;11.07;4.05;;;;;;;;;;5026393;28;20646;-59
2022/04/26 06:52:48;;;;;;;11.52;3.95;;;;;;;;;;5026011;28;20095;-58
2022/04/26 06:55:14;;;;;;;12.00;5.00;;;;;;;;;;5026207;28;20497;-58
2022/04/26 06:57:40;;;;;;;10.77;3.92;;;;;;;;;;5025839;28;20069;-58
2022/04/26 07:00:07;;;;;;;10.18;4.65;;;;;;;;;;5025958;28;20172;-58
2022/04/26 07:02:33;;;;;;;12.43;4.35;;;;;;;;;;5026040;28;20041;-59
2022/04/26 07:05:00;;;;;;;20.05;5.03;;;;;;;;;;5025741;28;20068;-58
2022/04/26 07:07:26;;;;;;;12.65;4.78;;;;;;;;;;5026294;28;20041;-58
2022/04/26 07:09:52;;;;;;;12.70;4.22;;;;;;;;;;5025685;28;20042;-58
2022/04/26 07:12:18;;;;;;;14.05;4.88;;;;;;;;;;5026197;28;20046;-58
2022/04/26 07:14:44;;;;;;;8.90;3.90;;;;;;;;;;5025318;28;20160;-58
2022/04/26 07:17:11;;;;;;;8.30;3.25;;;;;;;;;;5025986;28;20491;-58
2022/04/26 07:19:37;;;;;;;6.97;3.15;;;;;;;;;;5025670;28;20079;-57
2022/04/26 07:22:04;;;;;;;8.43;2.90;;;;;;;;;;5025430;28;20124;-59
2022/04/26 07:24:31;;;;;;;11.50;3.00;;;;;;;;;;5026035;28;20045;-58
2022/04/26 07:26:57;;;;;;;7.93;2.90;;;;;;;;;;5008296;28;20053;-58
2022/04/26 07:29:24;;;;;;;12.40;3.05;;;;;;;;;;5007604;28;20144;-58
2022/04/26 07:31:50;;;;;;;8.23;2.75;;;;;;;;;;5025584;28;20049;-58
2022/04/26 07:34:22;;;;;;;12.10;3.42;;;;;;;;;;5025379;28;20132;-58
2022/04/26 07:36:48;;;;;;;5.72;3.03;;;;;;;;;;5024620;28;20045;-58
2022/04/26 07:39:17;;;;;;;10.75;3.70;;;;;;;;;;5025559;28;20041;-58
2022/04/26 07:41:43;;;;;;;;;;;;;;;;;;5025471;28;20562;-58
2022/04/26 07:44:09;;;;;;;8.50;3.05;;;;;;;;;;5024874;28;19943;-58
2022/04/26 07:46:35;;;;;;;7.22;3.03;;;;;;;;;;5024992;28;20069;-58
2022/04/26 07:49:01;;;;;;;9.50;3.00;;;;;;;;;;5024734;28;20124;-59
2022/04/26 07:51:27;;;;;;;7.25;3.35;;;;;;;;;;5025009;28;20108;-58
2022/04/26 07:53:54;;;;;;;7.55;2.70;;;;;;;;;;5025295;28;20050;-58
2022/04/26 07:56:21;;;;;;;11.52;3.42;;;;;;;;;;5024760;28;20056;-58
2022/04/26 07:58:47;;;;;;;7.07;2.60;;;;;;;;;;5024230;28;20045;-58
2022/04/26 08:01:13;;;;;;;6.53;3.20;;;;;;;;;;5024821;28;20041;-58
2022/04/26 08:03:39;;;;;;;8.40;2.47;;;;;;;;;;5024153;28;20051;-58
2022/04/26 08:06:05;;;;;;;11.27;2.95;;;;;;;;;;5024624;28;20045;-58
2022/04/26 08:08:32;;;;;;;6.15;2.90;;;;;;;;;;5024727;28;20049;-59
2022/04/26 08:11:00;;;;;;;7.93;2.33;;;;;;;;;;5007415;28;20053;-58
2022/04/26 08:13:26;;;;;;;12.23;2.63;;;;;;;;;;5024222;28;20107;-58
2022/04/26 08:15:52;;;;;;;10.25;2.70;;;;;;;;;;5024557;28;20108;-58
2022/04/26 08:18:18;;;;;;;6.22;2.58;;;;;;;;;;5023789;28;20045;-59
2022/04/26 08:20:45;;;;;;;6.53;2.20;;;;;;;;;;5024401;28;20199;-58
2022/04/26 08:23:11;;;;;;;6.97;2.92;;;;;;;;;;5024507;28;20513;-58
2022/04/26 08:28:23;;;;;;;8.65;3.30;;;;;;;;;;5023356;28;20042;-58
2022/04/26 08:30:49;;;;;;;7.15;3.00;;;;;;;;;;5024147;28;20053;-58
2022/04/26 08:33:15;;;;;;;6.65;2.67;;;;;;;;;;5024477;28;20037;-58
2022/04/26 08:35:41;;;;;;;10.48;2.80;;;;;;;;;;5024104;28;20091;-58
2022/04/26 08:38:07;;;;;;;8.52;2.45;;;;;;;;;;5024578;28;20088;-59
2022/04/26 08:40:33;;;;;;;11.90;3.03;;;;;;;;;;5024271;28;20474;-58
2022/04/26 08:43:00;;;;;;;7.32;2.83;;;;;;;;;;5023548;28;20159;-58
2022/04/26 08:45:26;;;;;;;7.78;2.97;;;;;;;;;;5024554;28;20057;-58
2022/04/26 08:53:23;;;;;;;10.95;3.10;;;;;;;;;;5024225;28;20458;-58
2022/04/26 08:55:50;;;;;;;7.65;3.13;;;;;;;;;;5023462;28;20045;-58
2022/04/26 08:58:18;;;;;;;8.97;3.27;;;;;;;;;;5023980;28;20050;-58
2022/04/26 09:01:03;;;;;;;12.02;3.70;;;;;;;;;;5023730;28;20499;-59
2022/04/26 09:03:31;;;;;;;10.23;3.67;;;;;;;;;;5024601;28;20776;-58
2022/04/26 09:06:07;;;;;;;6.07;3.08;;;;;;;;;;5024328;28;20045;-58
2022/04/26 09:08:33;;;;;;;10.63;4.05;;;;;;;;;;5023718;28;20073;-58
2022/04/26 09:11:00;;;;;;;8.45;3.38;;;;;;;;;;5024061;28;20478;-57
2022/04/26 09:13:26;;;;;;;8.85;3.35;;;;;;;;;;5023470;28;20058;-58
2022/04/26 09:15:54;;;;;;;10.23;3.38;;;;;;;;;;5023967;28;20053;-58
2022/04/26 09:18:24;;;;;;;5.93;3.25;;;;;;;;;;5024016;28;20442;-58
2022/04/26 09:20:52;;;;;;;9.00;3.50;;;;;;;;;;5023676;28;20072;-58
2022/04/26 09:23:21;;;;;;;10.50;3.75;;;;;;;;;;5023645;28;20080;-58
2022/04/26 09:25:47;;;;;;;11.85;3.95;;;;;;;;;;5023739;28;20734;-59
2022/04/26 09:28:22;;;;;;;5.47;3.13;;;;;;;;;;5023352;28;20065;-58
2022/04/26 09:30:49;;;;;;;8.95;3.50;;;;;;;;;;5027447;28;20087;-58
2022/04/26 09:33:38;;;;;;;11.77;3.10;;;;;;;;;;5027862;28;20041;-57
2022/04/26 09:36:06;;;;;;;5.85;3.13;;;;;;;;;;5027569;28;20041;-58
2022/04/26 09:38:33;;;;;;;10.77;3.08;;;;;;;;;;5027714;28;20049;-58
2022/04/26 09:41:01;;;;;;;10.40;3.53;;;;;;;;;;5010198;28;20050;-56
2022/04/26 09:43:28;;;;;;;5.75;2.92;;;;;;;;;;5027421;28;20064;-57
2022/04/26 09:45:56;;;;;;;7.47;2.97;;;;;;;;;;5026778;28;20049;-58
2022/04/26 09:48:30;;;;;;;7.57;2.88;;;;;;;;;;5027355;28;20513;-58
2022/04/26 09:50:57;;;;;;;8.63;2.92;;;;;;;;;;5027596;28;20045;-58
2022/04/26 09:53:24;;;;;;;6.30;2.70;;;;;;;;;;5027657;28;20065;-58
2022/04/26 09:55:50;;;;;;;6.43;2.47;;;;;;;;;;5026683;28;20099;-58
2022/04/26 09:58:20;;;;;;;6.45;3.10;;;;;;;;;;5026363;28;20124;-58
2022/04/26 10:00:49;;;;;;;9.77;2.95;;;;;;;;;;5027492;28;20144;-58
2022/04/26 10:03:17;;;;;;;5.78;2.90;;;;;;;;;;5027119;28;20041;-58
2022/04/26 10:05:45;;;;;;;9.82;2.90;;;;;;;;;;5009524;28;20487;-58
2022/04/26 10:08:14;;;;;;;5.43;2.47;;;;;;;;;;5027314;28;20041;-58
2022/04/26 10:10:41;;;;;;;5.82;3.22;;;;;;;;;;5026609;28;20118;-59
2022/04/26 10:15:53;;;;;;;7.30;2.83;;;;;;;;;;5009296;28;20057;-58
2022/04/26 10:18:26;;;;;;;10.82;3.00;;;;;;;;;;5027003;28;20072;-58
2022/04/26 10:20:52;;;;;;;8.95;2.53;;;;;;;;;;5026700;28;20056;-58
2022/04/26 10:23:18;;;;;;;10.63;3.33;;;;;;;;;;5026592;28;20029;-58
2022/04/26 10:28:50;;;;;;;6.30;2.75;;;;;;;;;;5026313;28;20526;-58
2022/04/26 10:31:18;;;;;;;8.38;2.63;;;;;;;;;;5026512;28;20052;-58
2022/04/26 10:33:45;;;;;;;7.38;2.30;;;;;;;;;;5026550;28;20084;-58
2022/04/26 10:36:20;;;;;;;6.43;3.20;;;;;;;;;;5026541;28;20103;-59
2022/04/26 10:39:05;;;;;;;5.38;2.72;;;;;;;;;;5026778;28;20049;-59
2022/04/26 10:41:35;;;;;;;8.85;3.13;;;;;;;;;;5025007;28;20498;-59
2022/04/26 10:44:14;;;;;;;8.25;2.75;;;;;;;;;;5007967;28;20752;-58
2022/04/26 10:46:39;;;;;;;;;;;;;;;;;;5025834;28;20047;-58
2022/04/26 10:49:27;;;;;;;5.82;2.30;;;;;;;;;;5025746;28;19920;-58
2022/04/26 10:51:55;;;;;;;4.60;2.77;;;;;;;;;;5025818;28;20045;-58
2022/04/26 10:54:40;;;;;;;6.68;2.60;;;;;;;;;;5025251;28;20099;-57
2022/04/26 10:57:06;;;;;;;7.20;2.55;;;;;;;;;;5026057;28;20048;-57
2022/04/26 10:59:33;;;;;;;6.65;2.30;;;;;;;;;;5024949;28;20057;-58
2022/04/26 11:01:59;;;;;;;6.53;2.13;;;;;;;;;;5026491;28;20129;-58
2022/04/26 11:04:25;;;;;;;6.32;2.20;;;;;;;;;;5025725;28;20053;-58
2022/04/26 11:06:52;;;;;;;8.15;2.05;;;;;;;;;;5007718;28;20038;-58
2022/04/26 11:09:18;;;;;;;4.82;2.40;;;;;;;;;;5025610;28;20044;-58
2022/04/26 11:11:51;;;;;;;7.38;2.05;;;;;;;;;;5025850;28;20038;-58
2022/04/26 11:14:19;;;;;;;5.85;2.50;;;;;;;;;;5025324;28;20502;-58
2022/04/26 11:16:54;;;;;;;7.20;2.08;;;;;;;;;;5025181;28;20054;-58
2022/04/26 11:19:29;;;;;;;5.05;2.10;;;;;;;;;;5023820;28;20049;-57
2022/04/26 11:21:56;;;;;;;5.80;1.70;;;;;;;;;;5025029;28;20045;-58
2022/04/26 11:29:53;;;;;;;5.85;2.00;;;;;;;;;;5006708;28;20525;-58
2022/04/26 11:32:28;;;;;;;4.70;1.98;;;;;;;;;;5025399;28;20518;-58
2022/04/26 11:34:54;;;;;;;8.18;2.25;;;;;;;;;;5024675;28;20034;-58
2022/04/26 11:37:21;;;;;;;6.65;2.00;;;;;;;;;;5023432;28;20392;-58
2022/04/26 11:39:48;;;;;;;10.88;2.20;;;;;;;;;;5025373;28;20499;-58
2022/04/26 11:42:14;;;;;;;5.75;1.83;;;;;;;;;;5025201;28;20046;-58
2022/04/26 11:44:58;;;;;;;7.30;1.80;;;;;;;;;;5024254;28;20502;-58
2022/04/26 11:47:39;;;;;;;4.85;1.80;;;;;;;;;;5025281;28;20049;-58
2022/04/26 11:50:09;;;;;;;8.95;2.30;;;;;;;;;;5025033;28;20084;-58
2022/04/26 11:52:35;;;;;;;4.78;1.65;;;;;;;;;;5022106;28;20049;-58
2022/04/26 11:55:01;;;;;;;7.85;2.00;;;;;;;;;;5024461;28;20045;-58
2022/04/26 11:57:27;;;;;;;4.55;1.90;;;;;;;;;;5020178;28;20137;-58
2022/04/26 11:59:54;;;;;;;5.68;1.80;;;;;;;;;;5024505;28;20780;-58
2022/04/26 12:02:20;;;;;;;6.97;1.95;;;;;;;;;;5024712;28;20320;-58
2022/04/26 12:04:46;;;;;;;6.82;2.55;;;;;;;;;;5024610;28;20148;-58
2022/04/26 12:07:13;;;;;;;5.68;2.08;;;;;;;;;;5025012;28;20033;-58
2022/04/26 12:09:39;;;;;;;9.15;2.05;;;;;;;;;;5024346;28;20128;-58
2022/04/26 12:12:06;;;;;;;4.75;2.15;;;;;;;;;;5024472;28;20075;-58
2022/04/26 12:14:32;;;;;;;8.23;2.22;;;;;;;;;;5023724;28;20073;-58
2022/04/26 12:16:59;;;;;;;5.20;1.75;;;;;;;;;;5017884;28;21189;-58
2022/04/26 12:19:36;;;;;;;7.43;1.88;;;;;;;;;;5007677;28;20046;-58
2022/04/26 12:22:02;;;;;;;9.60;1.75;;;;;;;;;;5005028;28;20508;-58
2022/04/26 12:24:30;;;;;;;4.22;1.52;;;;;;;;;;5013544;28;20045;-58
2022/04/26 12:27:01;;;;;;;5.28;1.83;;;;;;;;;;5007258;28;20049;-58
2022/04/26 12:29:28;;;;;;;4.95;2.08;;;;;;;;;;5024753;28;20045;-58
2022/04/26 12:31:55;;;;;;;5.07;1.95;;;;;;;;;;5024220;28;20045;-58
2022/04/26 12:34:23;;;;;;;3.67;1.90;;;;;;;;;;5006705;28;20128;-58
2022/04/26 12:36:51;;;;;;;5.43;2.15;;;;;;;;;;5022963;28;20550;-58
2022/04/26 12:39:18;;;;;;;6.63;2.20;;;;;;;;;;5025096;28;20719;-58
2022/04/26 12:41:51;;;;;;;4.20;2.03;;;;;;;;;;5024570;28;20530;-58
2022/04/26 12:44:17;;;;;;;7.68;2.22;;;;;;;;;;5024090;28;20077;-58
2022/04/26 12:46:45;;;;;;;4.63;2.13;;;;;;;;;;5024151;28;20052;-58
2022/04/26 12:51:57;;;;;;;3.97;2.25;;;;;;;;;;5024966;28;20114;-58
2022/04/26 12:54:23;;;;;;;7.63;2.45;;;;;;;;;;5024622;28;20567;-58
2022/04/26 12:57:00;;;;;;;5.03;2.30;;;;;;;;;;5024189;28;20053;-58
2022/04/26 12:59:35;;;;;;;5.97;2.75;;;;;;;;;;5024180;28;20120;-58
2022/04/26 13:02:01;;;;;;;6.97;2.33;;;;;;;;;;5024987;28;20057;-58
2022/04/26 13:04:27;;;;;;;5.60;2.38;;;;;;;;;;5027289;28;20084;-58
2022/04/26 13:06:53;;;;;;;6.93;2.40;;;;;;;;;;5028640;28;20048;-57
2022/04/26 13:09:19;;;;;;;3.72;1.90;;;;;;;;;;5027678;28;20056;-58
2022/04/26 13:11:45;;;;;;;8.13;2.33;;;;;;;;;;5010574;28;20498;-58
2022/04/26 13:14:11;;;;;;;4.88;2.03;;;;;;;;;;5027600;28;20057;-57
2022/04/26 13:16:38;;;;;;;5.65;1.92;;;;;;;;;;5028296;28;20053;-58
2022/04/26 13:19:04;;;;;;;4.20;2.03;;;;;;;;;;5027957;28;20042;-58
2022/04/26 13:21:30;;;;;;;6.43;2.17;;;;;;;;;;5028384;28;20525;-58
2022/04/26 13:23:57;;;;;;;5.82;2.17;;;;;;;;;;5028157;28;20184;-58
2022/04/26 13:26:23;;;;;;;5.18;2.22;;;;;;;;;;5028248;28;20037;-58
2022/04/26 13:28:49;;;;;;;4.85;2.00;;;;;;;;;;5027424;28;20076;-57
2022/04/26 13:31:16;;;;;;;3.13;1.80;;;;;;;;;;5011253;28;20045;-58
2022/04/26 13:33:45;;;;;;;5.90;2.25;;;;;;;;;;5008401;28;20069;-58
2022/04/26 13:36:11;;;;;;;9.15;2.08;;;;;;;;;;5008509;28;20046;-58
2022/04/26 13:38:38;;;;;;;6.15;2.20;;;;;;;;;;5007997;28;20038;-58
2022/04/26 13:41:04;;;;;;;7.40;2.33;;;;;;;;;;5008319;28;20112;-58
2022/04/26 13:43:30;;;;;;;5.68;1.92;;;;;;;;;;5007337;28;20049;-58
2022/04/26 13:45:56;;;;;;;7.03;2.40;;;;;;;;;;5008800;28;20100;-58
2022/04/26 13:48:23;;;;;;;4.50;1.85;;;;;;;;;;5008367;28;20045;-58
2022/04/26 13:50:49;;;;;;;5.15;2.10;;;;;;;;;;5007499;28;20042;-58
2022/04/26 13:53:15;;;;;;;5.13;2.03;;;;;;;;;;5007960;28;20046;-58
2022/04/26 13:55:41;;;;;;;3.10;1.70;;;;;;;;;;5007459;28;20524;-58
2022/04/26 13:58:09;;;;;;;5.22;2.17;;;;;;;;;;5006970;28;20132;-58
2022/04/26 14:00:36;;;;;;;6.32;1.77;;;;;;;;;;5007963;28;20500;-59
2022/04/26 14:03:03;;;;;;;5.13;2.17;;;;;;;;;;5008012;28;20085;-57
2022/04/26 14:05:29;;;;;;;7.88;1.98;;;;;;;;;;5007613;28;20057;-58
2022/04/26 14:07:55;;;;;;;3.83;1.90;;;;;;;;;;5008120;28;20044;-58
2022/04/26 14:10:21;;;;;;;6.40;1.98;;;;;;;;;;5007542;28;20065;-58
2022/04/26 14:12:48;;;;;;;8.27;2.28;;;;;;;;;;5006712;28;20076;-58
2022/04/26 14:23:34;;;;;;;4.22;1.90;;;;;;;;;;5007274;28;20173;-59
2022/04/26 14:26:02;;;;;;;5.63;1.88;;;;;;;;;;5007683;28;20511;-59
2022/04/26 14:28:28;;;;;;;4.30;2.30;;;;;;;;;;5007148;28;20113;-58
2022/04/26 14:30:54;;;;;;;2.58;1.65;;;;;;;;;;5007238;28;20086;-59
2022/04/26 14:33:21;;;;;;;3.63;1.92;;;;;;;;;;5007349;28;20474;-59
2022/04/26 14:35:47;;;;;;;3.88;1.70;;;;;;;;;;5006947;28;20053;-59
2022/04/26 14:38:13;;;;;;;3.22;1.70;;;;;;;;;;5007314;28;20042;-59
2022/04/26 14:40:39;;;;;;;4.55;1.80;;;;;;;;;;5007273;28;20121;-58
2022/04/26 14:43:09;;;;;;;4.95;1.95;;;;;;;;;;5006446;28;20049;-58
2022/04/26 14:45:42;;;;;;;4.93;2.25;;;;;;;;;;5007100;28;20206;-59
2022/04/26 14:48:09;;;;;;;6.65;2.13;;;;;;;;;;5007055;28;20050;-59
2022/04/26 14:50:36;;;;;;;6.87;2.27;;;;;;;;;;5007175;28;20122;-59
2022/04/26 14:53:03;;;;;;;5.43;1.73;;;;;;;;;;5007227;28;20289;-59
2022/04/26 14:55:29;;;;;;;5.00;2.10;;;;;;;;;;5007433;28;20478;-58
2022/04/26 14:57:55;;;;;;;5.45;2.00;;;;;;;;;;5006217;28;20041;-59
2022/04/26 15:00:22;;;;;;;3.72;1.90;;;;;;;;;;5006879;28;20034;-59
2022/04/26 15:02:48;;;;;;;3.05;1.95;;;;;;;;;;5006042;28;20085;-59
2022/04/26 15:05:14;;;;;;;6.20;1.92;;;;;;;;;;5007489;28;20080;-59
2022/04/26 15:10:27;;;;;;;4.10;2.13;;;;;;;;;;5006901;28;20045;-59
2022/04/26 15:18:23;;;;;;;6.82;2.08;;;;;;;;;;5026501;28;20487;-58
2022/04/26 15:20:51;;;;;;;4.95;2.08;;;;;;;;;;5024384;28;20403;-59
2022/04/26 15:23:18;;;;;;;4.40;1.65;;;;;;;;;;5026374;28;20117;-58
2022/04/26 15:25:50;;;;;;;4.10;2.10;;;;;;;;;;5026060;28;20041;-58
2022/04/26 15:28:17;;;;;;;9.85;2.33;;;;;;;;;;5025635;28;20052;-58
2022/04/26 15:30:43;;;;;;;6.03;1.60;;;;;;;;;;5026542;28;20050;-58
2022/04/26 15:33:10;;;;;;;8.75;1.88;;;;;;;;;;5025670;28;20042;-58
2022/04/26 15:35:38;;;;;;;7.28;2.30;;;;;;;;;;5024851;28;20084;-59
2022/04/26 15:38:06;;;;;;;7.40;1.98;;;;;;;;;;5023713;28;20092;-59
2022/04/26 15:40:32;;;;;;;9.43;2.20;;;;;;;;;;5025366;28;20132;-58
2022/04/26 15:42:59;;;;;;;5.13;2.35;;;;;;;;;;5024763;28;20275;-58
2022/04/26 15:45:25;;;;;;;5.30;2.30;;;;;;;;;;5025622;28;20052;-59
2022/04/26 15:47:51;;;;;;;4.55;2.10;;;;;;;;;;5025639;28;20140;-58
2022/04/26 15:50:18;;;;;;;3.75;1.55;;;;;;;;;;5025957;28;20549;-59
2022/04/26 15:52:44;;;;;;;5.20;2.00;;;;;;;;;;5025026;28;20041;-59
2022/04/26 15:55:10;;;;;;;6.68;1.90;;;;;;;;;;5024624;28;20335;-58
2022/04/26 15:57:37;;;;;;;4.93;1.75;;;;;;;;;;5023683;28;20120;-58
2022/04/26 16:00:04;;;;;;;6.10;1.90;;;;;;;;;;5007207;28;20128;-58
2022/04/26 16:02:31;;;;;;;2.85;1.75;;;;;;;;;;5024460;28;20108;-58
2022/04/26 16:04:57;;;;;;;7.13;1.83;;;;;;;;;;5025617;28;20169;-58
2022/04/26 16:07:24;;;;;;;6.18;2.13;;;;;;;;;;5025088;28;20116;-58
2022/04/26 16:20:50;;;;;;;6.32;2.05;;;;;;;;;;5025057;28;20053;-58
2022/04/26 16:23:16;;;;;;;5.45;1.75;;;;;;;;;;5025153;28;20479;-58
2022/04/26 16:25:42;;;;;;;5.85;2.05;;;;;;;;;;5024327;28;20064;-58
2022/04/26 16:28:09;;;;;;;5.20;2.00;;;;;;;;;;5023991;28;20052;-58
2022/04/26 16:30:35;;;;;;;6.70;2.95;;;;;;;;;;5024922;28;20060;-58
2022/04/26 16:33:02;;;;;;;4.75;1.90;;;;;;;;;;5008352;28;20069;-58
2022/04/26 16:35:29;;;;;;;4.30;2.25;;;;;;;;;;5005373;28;20089;-58
2022/04/26 16:37:55;;;;;;;5.20;1.98;;;;;;;;;;4999154;28;20081;-58
2022/04/26 16:40:22;;;;;;;5.63;2.25;;;;;;;;;;5024956;28;20060;-57
2022/04/26 16:42:50;;;;;;;4.43;2.00;;;;;;;;;;5023593;28;20049;-58
2022/04/26 16:45:16;;;;;;;5.38;2.25;;;;;;;;;;5024471;28;20069;-57
2022/04/26 16:47:42;;;;;;;6.38;2.05;;;;;;;;;;5024851;28;20041;-58
2022/04/26 16:50:09;;;;;;;6.47;2.63;;;;;;;;;;5024956;28;20049;-57
2022/04/26 16:52:35;;;;;;;5.90;2.53;;;;;;;;;;5024655;28;20098;-57
2022/04/26 16:55:02;;;;;;;5.93;2.20;;;;;;;;;;5025075;28;20126;-58
2022/04/26 16:57:28;;;;;;;6.32;1.90;;;;;;;;;;5024109;28;20049;-58
2022/04/26 16:59:56;;;;;;;6.38;2.17;;;;;;;;;;5024602;28;20577;-58
2022/04/26 17:02:23;;;;;;;9.70;2.30;;;;;;;;;;5024111;28;20042;-58
2022/04/26 17:04:49;;;;;;;5.50;2.67;;;;;;;;;;5024157;28;20085;-58
2022/04/26 17:07:15;;;;;;;5.43;2.22;;;;;;;;;;5023919;28;20033;-58
2022/04/26 17:09:42;;;;;;;11.52;2.40;;;;;;;;;;5023709;28;20514;-57
2022/04/26 17:12:09;;;;;;;4.35;2.10;;;;;;;;;;5020487;28;20491;-58
2022/04/26 17:14:35;;;;;;;8.75;2.30;;;;;;;;;;5023710;28;20063;-58
2022/04/26 17:17:02;;;;;;;7.65;2.28;;;;;;;;;;5024655;28;20045;-58
2022/04/26 17:19:28;;;;;;;11.40;2.60;;;;;;;;;;5024664;28;20052;-59
2022/04/26 17:21:56;;;;;;;4.15;2.33;;;;;;;;;;5023804;28;20508;-58
2022/04/26 17:27:08;;;;;;;9.10;2.50;;;;;;;;;;5023724;28;20049;-58
2022/04/26 17:29:34;;;;;;;8.52;2.70;;;;;;;;;;5024063;28;20436;-58
2022/04/26 17:32:00;;;;;;;6.70;2.40;;;;;;;;;;5024384;28;20059;-57
2022/04/26 17:34:26;;;;;;;7.30;2.90;;;;;;;;;;5024231;28;20167;-58
2022/04/26 17:36:53;;;;;;;8.52;2.53;;;;;;;;;;5023554;28;20124;-57
2022/04/26 17:39:20;;;;;;;6.53;2.50;;;;;;;;;;5014332;28;20046;-57
2022/04/26 17:41:49;;;;;;;6.93;2.42;;;;;;;;;;5006221;28;20061;-58
2022/04/26 17:44:16;;;;;;;5.55;3.03;;;;;;;;;;5004918;28;20665;-58
2022/04/26 17:46:42;;;;;;;5.28;2.67;;;;;;;;;;5004902;28;20049;-57
2022/04/26 17:49:09;;;;;;;6.03;2.63;;;;;;;;;;5016110;28;20073;-58
2022/04/26 17:51:35;;;;;;;33.00;4.30;;;;;;;;;;5019075;28;20048;-58
2022/04/26 17:56:46;;;;;;;7.45;3.05;;;;;;;;;;5016669;28;20104;-58
2022/04/26 17:59:12;;;;;;;9.95;2.63;;;;;;;;;;5020965;28;20034;-57
2022/04/26 18:01:39;;;;;;;6.30;2.63;;;;;;;;;;5020682;28;20041;-55
2022/04/26 18:04:05;;;;;;;8.98;2.90;;;;;;;;;;5021027;28;20041;-57
2022/04/26 18:06:32;;;;;;;8.77;2.55;;;;;;;;;;5021265;28;20046;-58
2022/04/26 18:08:58;;;;;;;7.43;2.60;;;;;;;;;;5018556;28;20041;-58
2022/04/26 18:11:25;;;;;;;7.25;2.95;;;;;;;;;;5009528;28;20087;-59
2022/04/26 18:13:53;;;;;;;8.35;2.60;;;;;;;;;;5008159;28;20513;-57
2022/04/26 18:16:21;;;;;;;7.25;2.30;;;;;;;;;;5011604;28;20554;-58
2022/04/26 18:18:47;;;;;;;4.07;1.92;;;;;;;;;;5008592;28;20050;-58
2022/04/26 18:21:16;;;;;;;7.22;2.35;;;;;;;;;;5021017;28;20488;-58
2022/04/26 18:23:42;;;;;;;4.95;2.17;;;;;;;;;;5009300;28;20049;-58
2022/04/26 18:26:12;;;;;;;6.18;2.40;;;;;;;;;;5027665;28;20045;-57
2022/04/26 18:28:39;;;;;;;6.82;2.38;;;;;;;;;;5026853;28;20501;-58
2022/04/26 18:31:05;;;;;;;15.45;2.42;;;;;;;;;;5027360;28;20503;-58
2022/04/26 18:33:31;;;;;;;6.15;2.10;;;;;;;;;;5027062;28;20033;-59
2022/04/26 18:35:58;;;;;;;5.07;2.53;;;;;;;;;;5027991;28;20049;-59
2022/04/26 18:38:24;;;;;;;16.90;2.50;;;;;;;;;;5027330;28;20125;-58
2022/04/26 18:40:51;;;;;;;6.82;2.20;;;;;;;;;;5026749;28;20056;-58
2022/04/26 18:43:18;;;;;;;7.55;2.53;;;;;;;;;;5025758;28;20087;-58
2022/04/26 18:45:44;;;;;;;7.80;2.65;;;;;;;;;;5026202;28;20520;-58
2022/04/26 18:48:10;;;;;;;8.65;2.22;;;;;;;;;;5025851;28;20045;-58
2022/04/26 18:50:37;;;;;;;6.78;2.20;;;;;;;;;;5010325;28;20042;-58
2022/04/26 18:53:03;;;;;;;6.97;2.00;;;;;;;;;;5017810;28;20053;-58
2022/04/26 18:55:30;;;;;;;8.52;2.47;;;;;;;;;;5001435;28;20100;-58
2022/04/26 18:57:56;;;;;;;4.82;2.30;;;;;;;;;;5012063;28;20385;-57
2022/04/26 19:00:23;;;;;;;7.90;2.38;;;;;;;;;;5025309;28;20084;-58
2022/04/26 19:02:50;;;;;;;7.72;2.67;;;;;;;;;;5013817;28;20574;-58
2022/04/26 19:05:16;;;;;;;7.60;2.55;;;;;;;;;;5009449;28;20073;-58
2022/04/26 19:07:43;;;;;;;5.82;2.53;;;;;;;;;;5003970;28;20044;-58
2022/04/26 19:12:54;;;;;;;7.68;2.80;;;;;;;;;;5012346;28;20072;-58
2022/04/26 19:15:20;;;;;;;4.25;2.72;;;;;;;;;;5005984;28;20080;-58